sensor_id;sensor_type;location;lat;lon;timestamp;P1;durP1;ratioP1;P2;durP2;ratioP2
11681;SDS011;5897;42.640;23.310;2023-11-19T00:00:10;2.47;;;2.27;;
11681;SDS011;5897;42.640;23.310;2023-11-19T00:02:38;2.23;;;2.13;;
11681;SDS011;5897;42.640;23.310;2023-11-19T00:05:05;2.30;;;2.20;;
11681;SDS011;5897;42.640;23.310;2023-11-19T00:07:40;2.10;;;2.00;;
11681;SDS011;5897;42.640;23.310;2023-11-19T00:10:08;2.43;;;2.23;;
11681;SDS011;5897;42.640;23.310;2023-11-19T00:12:36;2.07;;;1.97;;
11681;SDS011;5897;42.640;23.310;2023-11-19T00:15:05;2.07;;;1.90;;
11681;SDS011;5897;42.640;23.310;2023-11-19T00:17:36;2.43;;;2.10;;
11681;SDS011;5897;42.640;23.310;2023-11-19T00:20:04;2.40;;;2.20;;
11681;SDS011;5897;42.640;23.310;2023-11-19T00:22:32;2.30;;;2.10;;
11681;SDS011;5897;42.640;23.310;2023-11-19T00:25:01;3.90;;;2.00;;
11681;SDS011;5897;42.640;23.310;2023-11-19T00:27:28;2.60;;;2.40;;
11681;SDS011;5897;42.640;23.310;2023-11-19T00:29:55;2.40;;;2.20;;
11681;SDS011;5897;42.640;23.310;2023-11-19T00:32:23;2.50;;;2.30;;
11681;SDS011;5897;42.640;23.310;2023-11-19T00:34:50;2.80;;;2.17;;
11681;SDS011;5897;42.640;23.310;2023-11-19T00:37:17;2.70;;;2.50;;
11681;SDS011;5897;42.640;23.310;2023-11-19T00:39:46;2.60;;;2.40;;
11681;SDS011;5897;42.640;23.310;2023-11-19T00:42:13;2.47;;;2.27;;
11681;SDS011;5897;42.640;23.310;2023-11-19T00:44:42;2.17;;;2.03;;
11681;SDS011;5897;42.640;23.310;2023-11-19T00:47:09;2.53;;;2.33;;
11681;SDS011;5897;42.640;23.310;2023-11-19T00:49:37;2.47;;;2.27;;
11681;SDS011;5897;42.640;23.310;2023-11-19T00:52:04;2.80;;;2.30;;
11681;SDS011;5897;42.640;23.310;2023-11-19T00:54:34;2.57;;;2.37;;
11681;SDS011;5897;42.640;23.310;2023-11-19T00:57:12;2.83;;;2.50;;
11681;SDS011;5897;42.640;23.310;2023-11-19T00:59:41;2.63;;;2.43;;
11681;SDS011;5897;42.640;23.310;2023-11-19T01:02:08;2.57;;;2.37;;
11681;SDS011;5897;42.640;23.310;2023-11-19T01:04:34;2.67;;;2.23;;
11681;SDS011;5897;42.640;23.310;2023-11-19T01:07:04;2.53;;;2.33;;
11681;SDS011;5897;42.640;23.310;2023-11-19T01:09:31;2.27;;;2.10;;
11681;SDS011;5897;42.640;23.310;2023-11-19T01:11:59;2.90;;;2.30;;
11681;SDS011;5897;42.640;23.310;2023-11-19T01:14:26;2.40;;;2.20;;
11681;SDS011;5897;42.640;23.310;2023-11-19T01:16:53;2.83;;;2.50;;
11681;SDS011;5897;42.640;23.310;2023-11-19T01:19:23;2.30;;;2.10;;
11681;SDS011;5897;42.640;23.310;2023-11-19T01:21:51;2.53;;;2.20;;
11681;SDS011;5897;42.640;23.310;2023-11-19T01:24:18;3.80;;;2.00;;
11681;SDS011;5897;42.640;23.310;2023-11-19T01:26:50;2.70;;;2.50;;
11681;SDS011;5897;42.640;23.310;2023-11-19T01:29:18;2.50;;;2.30;;
11681;SDS011;5897;42.640;23.310;2023-11-19T01:31:45;2.47;;;2.23;;
11681;SDS011;5897;42.640;23.310;2023-11-19T01:34:12;2.50;;;2.30;;
11681;SDS011;5897;42.640;23.310;2023-11-19T01:36:42;2.33;;;2.13;;
11681;SDS011;5897;42.640;23.310;2023-11-19T01:39:10;2.50;;;2.30;;
11681;SDS011;5897;42.640;23.310;2023-11-19T01:41:37;2.30;;;2.10;;
11681;SDS011;5897;42.640;23.310;2023-11-19T01:44:05;2.30;;;2.10;;
11681;SDS011;5897;42.640;23.310;2023-11-19T01:46:32;1.93;;;1.83;;
11681;SDS011;5897;42.640;23.310;2023-11-19T01:49:01;2.17;;;2.03;;
11681;SDS011;5897;42.640;23.310;2023-11-19T01:51:31;3.13;;;2.10;;
11681;SDS011;5897;42.640;23.310;2023-11-19T01:54:01;2.17;;;2.07;;
11681;SDS011;5897;42.640;23.310;2023-11-19T01:56:29;1.80;;;1.70;;
11681;SDS011;5897;42.640;23.310;2023-11-19T01:58:58;1.93;;;1.77;;
11681;SDS011;5897;42.640;23.310;2023-11-19T02:01:25;1.93;;;1.83;;
11681;SDS011;5897;42.640;23.310;2023-11-19T02:03:52;2.00;;;1.90;;
11681;SDS011;5897;42.640;23.310;2023-11-19T02:06:19;2.13;;;1.93;;
11681;SDS011;5897;42.640;23.310;2023-11-19T02:08:49;2.27;;;2.00;;
11681;SDS011;5897;42.640;23.310;2023-11-19T02:11:19;1.80;;;1.70;;
11681;SDS011;5897;42.640;23.310;2023-11-19T02:13:47;2.10;;;2.00;;
11681;SDS011;5897;42.640;23.310;2023-11-19T02:16:14;2.37;;;2.17;;
11681;SDS011;5897;42.640;23.310;2023-11-19T02:18:40;2.17;;;1.87;;
11681;SDS011;5897;42.640;23.310;2023-11-19T02:21:08;2.00;;;1.90;;
11681;SDS011;5897;42.640;23.310;2023-11-19T02:23:38;2.20;;;2.00;;
11681;SDS011;5897;42.640;23.310;2023-11-19T02:26:10;2.40;;;2.20;;
11681;SDS011;5897;42.640;23.310;2023-11-19T02:28:44;1.90;;;1.80;;
11681;SDS011;5897;42.640;23.310;2023-11-19T02:31:11;2.00;;;1.90;;
11681;SDS011;5897;42.640;23.310;2023-11-19T02:33:38;3.37;;;2.00;;
11681;SDS011;5897;42.640;23.310;2023-11-19T02:36:05;2.20;;;2.00;;
11681;SDS011;5897;42.640;23.310;2023-11-19T02:38:33;2.00;;;1.90;;
11681;SDS011;5897;42.640;23.310;2023-11-19T02:41:02;2.00;;;1.90;;
11681;SDS011;5897;42.640;23.310;2023-11-19T02:43:31;2.00;;;1.90;;
11681;SDS011;5897;42.640;23.310;2023-11-19T02:46:00;1.97;;;1.87;;
11681;SDS011;5897;42.640;23.310;2023-11-19T02:48:27;2.10;;;1.90;;
11681;SDS011;5897;42.640;23.310;2023-11-19T02:50:54;1.90;;;1.80;;
11681;SDS011;5897;42.640;23.310;2023-11-19T02:53:23;2.10;;;1.90;;
11681;SDS011;5897;42.640;23.310;2023-11-19T02:55:52;2.10;;;1.90;;
11681;SDS011;5897;42.640;23.310;2023-11-19T02:58:26;2.87;;;2.00;;
11681;SDS011;5897;42.640;23.310;2023-11-19T03:00:53;1.90;;;1.80;;
11681;SDS011;5897;42.640;23.310;2023-11-19T03:03:26;1.97;;;1.87;;
11681;SDS011;5897;42.640;23.310;2023-11-19T03:06:03;2.00;;;1.90;;
11681;SDS011;5897;42.640;23.310;2023-11-19T03:08:30;2.50;;;2.30;;
11681;SDS011;5897;42.640;23.310;2023-11-19T03:11:00;1.80;;;1.70;;
11681;SDS011;5897;42.640;23.310;2023-11-19T03:13:27;2.30;;;2.10;;
11681;SDS011;5897;42.640;23.310;2023-11-19T03:15:57;2.10;;;2.00;;
11681;SDS011;5897;42.640;23.310;2023-11-19T03:18:26;2.13;;;2.00;;
11681;SDS011;5897;42.640;23.310;2023-11-19T03:20:53;2.00;;;1.90;;
11681;SDS011;5897;42.640;23.310;2023-11-19T03:23:25;2.13;;;1.80;;
11681;SDS011;5897;42.640;23.310;2023-11-19T03:25:54;2.30;;;2.10;;
11681;SDS011;5897;42.640;23.310;2023-11-19T03:28:22;2.77;;;1.90;;
11681;SDS011;5897;42.640;23.310;2023-11-19T03:30:48;2.10;;;2.00;;
11681;SDS011;5897;42.640;23.310;2023-11-19T03:33:18;2.30;;;2.07;;
11681;SDS011;5897;42.640;23.310;2023-11-19T03:35:47;2.50;;;2.30;;
11681;SDS011;5897;42.640;23.310;2023-11-19T03:38:14;2.23;;;2.10;;
11681;SDS011;5897;42.640;23.310;2023-11-19T03:40:43;2.20;;;2.00;;
11681;SDS011;5897;42.640;23.310;2023-11-19T03:43:10;2.37;;;2.17;;
11681;SDS011;5897;42.640;23.310;2023-11-19T03:45:39;3.57;;;2.30;;
11681;SDS011;5897;42.640;23.310;2023-11-19T03:48:06;2.30;;;2.10;;
11681;SDS011;5897;42.640;23.310;2023-11-19T03:50:32;2.40;;;2.20;;
11681;SDS011;5897;42.640;23.310;2023-11-19T03:53:04;2.30;;;2.10;;
11681;SDS011;5897;42.640;23.310;2023-11-19T03:55:31;2.33;;;2.17;;
11681;SDS011;5897;42.640;23.310;2023-11-19T03:57:58;2.20;;;2.00;;
11681;SDS011;5897;42.640;23.310;2023-11-19T04:00:25;2.93;;;2.17;;
11681;SDS011;5897;42.640;23.310;2023-11-19T04:02:55;1.97;;;1.83;;
11681;SDS011;5897;42.640;23.310;2023-11-19T04:05:22;2.77;;;2.53;;
11681;SDS011;5897;42.640;23.310;2023-11-19T04:07:49;2.70;;;2.50;;
11681;SDS011;5897;42.640;23.310;2023-11-19T04:10:18;2.33;;;2.13;;
11681;SDS011;5897;42.640;23.310;2023-11-19T04:12:46;2.80;;;2.60;;
11681;SDS011;5897;42.640;23.310;2023-11-19T04:15:13;2.43;;;2.23;;
11681;SDS011;5897;42.640;23.310;2023-11-19T04:17:40;2.50;;;2.30;;
11681;SDS011;5897;42.640;23.310;2023-11-19T04:20:10;2.37;;;2.17;;
11681;SDS011;5897;42.640;23.310;2023-11-19T04:22:38;2.53;;;2.33;;
11681;SDS011;5897;42.640;23.310;2023-11-19T04:25:06;2.07;;;1.97;;
11681;SDS011;5897;42.640;23.310;2023-11-19T04:27:37;2.43;;;2.23;;
11681;SDS011;5897;42.640;23.310;2023-11-19T04:30:06;2.30;;;2.10;;
11681;SDS011;5897;42.640;23.310;2023-11-19T04:32:36;2.40;;;2.20;;
11681;SDS011;5897;42.640;23.310;2023-11-19T04:35:02;2.30;;;2.10;;
11681;SDS011;5897;42.640;23.310;2023-11-19T04:37:34;2.40;;;2.20;;
11681;SDS011;5897;42.640;23.310;2023-11-19T04:40:01;2.50;;;2.30;;
11681;SDS011;5897;42.640;23.310;2023-11-19T04:42:31;2.30;;;2.10;;
11681;SDS011;5897;42.640;23.310;2023-11-19T04:45:01;1.90;;;1.80;;
11681;SDS011;5897;42.640;23.310;2023-11-19T04:47:30;2.03;;;1.93;;
11681;SDS011;5897;42.640;23.310;2023-11-19T04:49:57;2.33;;;2.13;;
11681;SDS011;5897;42.640;23.310;2023-11-19T04:52:24;2.07;;;1.97;;
11681;SDS011;5897;42.640;23.310;2023-11-19T04:54:51;2.23;;;1.93;;
11681;SDS011;5897;42.640;23.310;2023-11-19T04:57:17;2.47;;;2.27;;
11681;SDS011;5897;42.640;23.310;2023-11-19T04:59:44;2.43;;;2.23;;
11681;SDS011;5897;42.640;23.310;2023-11-19T05:02:12;2.20;;;2.00;;
11681;SDS011;5897;42.640;23.310;2023-11-19T05:04:42;2.23;;;2.03;;
11681;SDS011;5897;42.640;23.310;2023-11-19T05:07:09;2.40;;;2.20;;
11681;SDS011;5897;42.640;23.310;2023-11-19T05:09:36;2.47;;;2.27;;
11681;SDS011;5897;42.640;23.310;2023-11-19T05:12:02;2.40;;;2.20;;
11681;SDS011;5897;42.640;23.310;2023-11-19T05:14:29;2.20;;;2.00;;
11681;SDS011;5897;42.640;23.310;2023-11-19T05:16:56;2.50;;;2.30;;
11681;SDS011;5897;42.640;23.310;2023-11-19T05:19:24;2.23;;;2.13;;
11681;SDS011;5897;42.640;23.310;2023-11-19T05:21:51;2.27;;;2.07;;
11681;SDS011;5897;42.640;23.310;2023-11-19T05:24:21;2.70;;;1.90;;
11681;SDS011;5897;42.640;23.310;2023-11-19T05:26:48;2.53;;;2.10;;
11681;SDS011;5897;42.640;23.310;2023-11-19T05:29:17;2.30;;;2.20;;
11681;SDS011;5897;42.640;23.310;2023-11-19T05:31:46;2.73;;;2.20;;
11681;SDS011;5897;42.640;23.310;2023-11-19T05:34:13;2.37;;;2.17;;
11681;SDS011;5897;42.640;23.310;2023-11-19T05:36:42;2.23;;;2.03;;
11681;SDS011;5897;42.640;23.310;2023-11-19T05:39:10;2.87;;;2.33;;
11681;SDS011;5897;42.640;23.310;2023-11-19T05:41:37;2.37;;;2.27;;
11681;SDS011;5897;42.640;23.310;2023-11-19T05:44:04;2.10;;;2.00;;
11681;SDS011;5897;42.640;23.310;2023-11-19T05:46:32;2.40;;;2.20;;
11681;SDS011;5897;42.640;23.310;2023-11-19T05:49:05;2.77;;;2.03;;
11681;SDS011;5897;42.640;23.310;2023-11-19T05:51:32;2.43;;;2.23;;
11681;SDS011;5897;42.640;23.310;2023-11-19T05:54:05;2.63;;;2.43;;
11681;SDS011;5897;42.640;23.310;2023-11-19T05:56:32;2.43;;;2.07;;
11681;SDS011;5897;42.640;23.310;2023-11-19T05:59:00;2.50;;;2.30;;
11681;SDS011;5897;42.640;23.310;2023-11-19T06:01:28;2.60;;;2.40;;
11681;SDS011;5897;42.640;23.310;2023-11-19T06:03:55;2.33;;;2.13;;
11681;SDS011;5897;42.640;23.310;2023-11-19T06:06:22;2.57;;;2.20;;
11681;SDS011;5897;42.640;23.310;2023-11-19T06:08:49;2.50;;;2.30;;
11681;SDS011;5897;42.640;23.310;2023-11-19T06:11:17;2.30;;;2.10;;
11681;SDS011;5897;42.640;23.310;2023-11-19T06:13:48;2.60;;;2.40;;
11681;SDS011;5897;42.640;23.310;2023-11-19T06:16:22;2.50;;;2.30;;
11681;SDS011;5897;42.640;23.310;2023-11-19T06:18:54;2.87;;;2.50;;
11681;SDS011;5897;42.640;23.310;2023-11-19T06:21:21;2.70;;;2.50;;
11681;SDS011;5897;42.640;23.310;2023-11-19T06:23:53;2.50;;;2.30;;
11681;SDS011;5897;42.640;23.310;2023-11-19T06:26:28;2.73;;;2.53;;
11681;SDS011;5897;42.640;23.310;2023-11-19T06:28:58;2.50;;;2.30;;
11681;SDS011;5897;42.640;23.310;2023-11-19T06:31:30;2.70;;;2.47;;
11681;SDS011;5897;42.640;23.310;2023-11-19T06:33:57;2.57;;;2.33;;
11681;SDS011;5897;42.640;23.310;2023-11-19T06:36:24;2.57;;;2.37;;
11681;SDS011;5897;42.640;23.310;2023-11-19T06:38:54;2.50;;;2.30;;
11681;SDS011;5897;42.640;23.310;2023-11-19T06:41:23;2.87;;;2.20;;
11681;SDS011;5897;42.640;23.310;2023-11-19T06:43:51;2.50;;;2.30;;
11681;SDS011;5897;42.640;23.310;2023-11-19T06:46:18;2.60;;;2.40;;
11681;SDS011;5897;42.640;23.310;2023-11-19T06:48:45;2.40;;;2.20;;
11681;SDS011;5897;42.640;23.310;2023-11-19T06:51:16;2.50;;;2.30;;
11681;SDS011;5897;42.640;23.310;2023-11-19T06:53:45;2.43;;;2.23;;
11681;SDS011;5897;42.640;23.310;2023-11-19T06:56:21;2.40;;;2.20;;
11681;SDS011;5897;42.640;23.310;2023-11-19T06:58:53;3.00;;;2.70;;
11681;SDS011;5897;42.640;23.310;2023-11-19T07:01:20;2.80;;;2.60;;
11681;SDS011;5897;42.640;23.310;2023-11-19T07:03:47;2.47;;;2.27;;
11681;SDS011;5897;42.640;23.310;2023-11-19T07:06:14;2.53;;;2.33;;
11681;SDS011;5897;42.640;23.310;2023-11-19T07:08:43;2.60;;;2.40;;
11681;SDS011;5897;42.640;23.310;2023-11-19T07:11:12;3.20;;;2.70;;
11681;SDS011;5897;42.640;23.310;2023-11-19T07:13:47;3.30;;;2.50;;
11681;SDS011;5897;42.640;23.310;2023-11-19T07:16:19;4.60;;;2.63;;
11681;SDS011;5897;42.640;23.310;2023-11-19T07:18:49;2.90;;;2.57;;
11681;SDS011;5897;42.640;23.310;2023-11-19T07:21:20;2.87;;;2.57;;
11681;SDS011;5897;42.640;23.310;2023-11-19T07:23:48;2.70;;;2.50;;
11681;SDS011;5897;42.640;23.310;2023-11-19T07:26:17;3.63;;;2.70;;
11681;SDS011;5897;42.640;23.310;2023-11-19T07:28:59;2.70;;;2.50;;
11681;SDS011;5897;42.640;23.310;2023-11-19T07:31:28;2.80;;;2.60;;
11681;SDS011;5897;42.640;23.310;2023-11-19T07:33:57;2.60;;;2.40;;
11681;SDS011;5897;42.640;23.310;2023-11-19T07:36:27;2.90;;;2.60;;
11681;SDS011;5897;42.640;23.310;2023-11-19T07:38:53;2.90;;;2.70;;
11681;SDS011;5897;42.640;23.310;2023-11-19T07:41:26;3.00;;;2.70;;
11681;SDS011;5897;42.640;23.310;2023-11-19T07:43:55;3.00;;;2.70;;
11681;SDS011;5897;42.640;23.310;2023-11-19T07:46:22;3.13;;;2.83;;
11681;SDS011;5897;42.640;23.310;2023-11-19T07:48:51;2.47;;;2.27;;
11681;SDS011;5897;42.640;23.310;2023-11-19T07:51:20;2.93;;;2.73;;
11681;SDS011;5897;42.640;23.310;2023-11-19T07:53:50;2.60;;;2.40;;
11681;SDS011;5897;42.640;23.310;2023-11-19T07:56:18;2.90;;;2.60;;
11681;SDS011;5897;42.640;23.310;2023-11-19T07:58:49;2.80;;;2.60;;
11681;SDS011;5897;42.640;23.310;2023-11-19T08:01:16;2.53;;;2.33;;
11681;SDS011;5897;42.640;23.310;2023-11-19T08:03:46;3.17;;;2.80;;
11681;SDS011;5897;42.640;23.310;2023-11-19T08:06:19;3.33;;;3.03;;
11681;SDS011;5897;42.640;23.310;2023-11-19T08:08:46;3.37;;;3.07;;
11681;SDS011;5897;42.640;23.310;2023-11-19T08:11:17;2.90;;;2.70;;
11681;SDS011;5897;42.640;23.310;2023-11-19T08:13:45;2.83;;;2.53;;
11681;SDS011;5897;42.640;23.310;2023-11-19T08:16:13;3.07;;;2.87;;
11681;SDS011;5897;42.640;23.310;2023-11-19T08:18:41;2.60;;;2.40;;
11681;SDS011;5897;42.640;23.310;2023-11-19T08:21:08;2.90;;;2.70;;
11681;SDS011;5897;42.640;23.310;2023-11-19T08:23:42;3.10;;;2.80;;
11681;SDS011;5897;42.640;23.310;2023-11-19T08:26:09;3.63;;;3.00;;
11681;SDS011;5897;42.640;23.310;2023-11-19T08:28:36;4.20;;;2.97;;
11681;SDS011;5897;42.640;23.310;2023-11-19T08:31:06;2.87;;;2.57;;
11681;SDS011;5897;42.640;23.310;2023-11-19T08:33:32;2.87;;;2.67;;
11681;SDS011;5897;42.640;23.310;2023-11-19T08:36:00;3.43;;;3.13;;
11681;SDS011;5897;42.640;23.310;2023-11-19T08:38:29;3.57;;;3.27;;
11681;SDS011;5897;42.640;23.310;2023-11-19T08:41:03;3.10;;;2.90;;
11681;SDS011;5897;42.640;23.310;2023-11-19T08:43:33;2.90;;;2.70;;
11681;SDS011;5897;42.640;23.310;2023-11-19T08:46:03;2.90;;;2.70;;
11681;SDS011;5897;42.640;23.310;2023-11-19T08:48:33;4.77;;;3.03;;
11681;SDS011;5897;42.640;23.310;2023-11-19T08:51:00;3.27;;;3.03;;
11681;SDS011;5897;42.640;23.310;2023-11-19T08:53:27;3.30;;;3.00;;
11681;SDS011;5897;42.640;23.310;2023-11-19T08:55:54;3.40;;;2.80;;
11681;SDS011;5897;42.640;23.310;2023-11-19T08:58:24;3.13;;;2.93;;
11681;SDS011;5897;42.640;23.310;2023-11-19T09:00:51;3.45;;;3.10;;
11681;SDS011;5897;42.640;23.310;2023-11-19T09:03:21;2.83;;;2.63;;
11681;SDS011;5897;42.640;23.310;2023-11-19T09:05:51;2.80;;;2.60;;
11681;SDS011;5897;42.640;23.310;2023-11-19T09:08:25;3.00;;;2.80;;
11681;SDS011;5897;42.640;23.310;2023-11-19T09:10:52;2.93;;;2.73;;
11681;SDS011;5897;42.640;23.310;2023-11-19T09:13:21;3.00;;;2.67;;
11681;SDS011;5897;42.640;23.310;2023-11-19T09:15:51;2.50;;;2.30;;
11681;SDS011;5897;42.640;23.310;2023-11-19T09:18:20;2.85;;;2.58;;
11681;SDS011;5897;42.640;23.310;2023-11-19T09:20:47;3.63;;;2.53;;
11681;SDS011;5897;42.640;23.310;2023-11-19T09:23:17;2.80;;;2.60;;
11681;SDS011;5897;42.640;23.310;2023-11-19T09:25:48;2.88;;;2.67;;
11681;SDS011;5897;42.640;23.310;2023-11-19T09:28:15;2.60;;;2.40;;
11681;SDS011;5897;42.640;23.310;2023-11-19T09:30:44;2.40;;;2.20;;
11681;SDS011;5897;42.640;23.310;2023-11-19T09:33:14;2.55;;;2.35;;
11681;SDS011;5897;42.640;23.310;2023-11-19T09:35:43;2.47;;;2.28;;
11681;SDS011;5897;42.640;23.310;2023-11-19T09:38:13;4.45;;;2.38;;
11681;SDS011;5897;42.640;23.310;2023-11-19T09:40:42;2.83;;;2.63;;
11681;SDS011;5897;42.640;23.310;2023-11-19T09:43:18;2.42;;;2.30;;
11681;SDS011;5897;42.640;23.310;2023-11-19T09:45:47;2.70;;;2.50;;
11681;SDS011;5897;42.640;23.310;2023-11-19T09:48:17;2.65;;;2.45;;
11681;SDS011;5897;42.640;23.310;2023-11-19T09:50:45;2.88;;;2.38;;
11681;SDS011;5897;42.640;23.310;2023-11-19T09:53:16;8.43;;;2.70;;
11681;SDS011;5897;42.640;23.310;2023-11-19T09:55:45;2.70;;;2.50;;
11681;SDS011;5897;42.640;23.310;2023-11-19T09:58:28;2.83;;;2.63;;
11681;SDS011;5897;42.640;23.310;2023-11-19T10:00:55;2.90;;;2.38;;
11681;SDS011;5897;42.640;23.310;2023-11-19T10:03:25;3.22;;;2.92;;
11681;SDS011;5897;42.640;23.310;2023-11-19T10:06:09;3.40;;;2.70;;
11681;SDS011;5897;42.640;23.310;2023-11-19T10:08:38;2.60;;;2.40;;
11681;SDS011;5897;42.640;23.310;2023-11-19T10:11:09;2.70;;;2.50;;
11681;SDS011;5897;42.640;23.310;2023-11-19T10:13:40;2.60;;;2.33;;
11681;SDS011;5897;42.640;23.310;2023-11-19T10:16:08;2.58;;;2.38;;
11681;SDS011;5897;42.640;23.310;2023-11-19T10:18:38;2.58;;;2.38;;
11681;SDS011;5897;42.640;23.310;2023-11-19T10:21:14;2.50;;;2.10;;
11681;SDS011;5897;42.640;23.310;2023-11-19T10:23:49;2.40;;;2.20;;
11681;SDS011;5897;42.640;23.310;2023-11-19T10:26:22;2.40;;;2.20;;
11681;SDS011;5897;42.640;23.310;2023-11-19T10:28:52;2.75;;;1.75;;
11681;SDS011;5897;42.640;23.310;2023-11-19T10:31:19;2.42;;;2.20;;
11681;SDS011;5897;42.640;23.310;2023-11-19T10:33:54;2.28;;;2.08;;
11681;SDS011;5897;42.640;23.310;2023-11-19T10:36:37;2.58;;;2.20;;
11681;SDS011;5897;42.640;23.310;2023-11-19T10:39:07;2.42;;;2.05;;
11681;SDS011;5897;42.640;23.310;2023-11-19T10:41:34;2.17;;;1.80;;
11681;SDS011;5897;42.640;23.310;2023-11-19T10:44:01;2.08;;;1.88;;
11681;SDS011;5897;42.640;23.310;2023-11-19T10:46:37;2.20;;;2.00;;
11681;SDS011;5897;42.640;23.310;2023-11-19T10:49:08;2.95;;;1.90;;
11681;SDS011;5897;42.640;23.310;2023-11-19T10:51:36;2.28;;;2.08;;
11681;SDS011;5897;42.640;23.310;2023-11-19T10:54:08;2.13;;;1.92;;
11681;SDS011;5897;42.640;23.310;2023-11-19T10:56:39;2.15;;;1.95;;
11681;SDS011;5897;42.640;23.310;2023-11-19T10:59:09;2.00;;;1.80;;
11681;SDS011;5897;42.640;23.310;2023-11-19T11:01:38;2.03;;;1.90;;
11681;SDS011;5897;42.640;23.310;2023-11-19T11:04:14;2.30;;;2.10;;
11681;SDS011;5897;42.640;23.310;2023-11-19T11:06:45;1.90;;;1.80;;
11681;SDS011;5897;42.640;23.310;2023-11-19T11:09:16;1.88;;;1.77;;
11681;SDS011;5897;42.640;23.310;2023-11-19T11:11:56;2.30;;;2.10;;
11681;SDS011;5897;42.640;23.310;2023-11-19T11:14:26;2.17;;;1.98;;
11681;SDS011;5897;42.640;23.310;2023-11-19T11:16:59;1.83;;;1.70;;
11681;SDS011;5897;42.640;23.310;2023-11-19T11:19:29;2.95;;;2.17;;
11681;SDS011;5897;42.640;23.310;2023-11-19T11:21:59;1.60;;;1.50;;
11681;SDS011;5897;42.640;23.310;2023-11-19T11:24:37;1.90;;;1.73;;
11681;SDS011;5897;42.640;23.310;2023-11-19T11:27:25;2.10;;;1.90;;
11681;SDS011;5897;42.640;23.310;2023-11-19T11:30:24;2.42;;;1.80;;
11681;SDS011;5897;42.640;23.310;2023-11-19T11:33:05;1.63;;;1.52;;
11681;SDS011;5897;42.640;23.310;2023-11-19T11:35:46;1.70;;;1.60;;
11681;SDS011;5897;42.640;23.310;2023-11-19T11:38:22;1.83;;;1.70;;
11681;SDS011;5897;42.640;23.310;2023-11-19T11:43:44;1.65;;;1.55;;
11681;SDS011;5897;42.640;23.310;2023-11-19T11:49:16;1.60;;;1.50;;
11681;SDS011;5897;42.640;23.310;2023-11-19T11:51:59;1.63;;;1.52;;
11681;SDS011;5897;42.640;23.310;2023-11-19T11:54:30;2.38;;;1.40;;
11681;SDS011;5897;42.640;23.310;2023-11-19T11:57:04;1.92;;;1.83;;
11681;SDS011;5897;42.640;23.310;2023-11-19T11:59:42;1.30;;;1.30;;
11681;SDS011;5897;42.640;23.310;2023-11-19T12:02:13;1.70;;;1.60;;
11681;SDS011;5897;42.640;23.310;2023-11-19T12:04:47;1.80;;;1.70;;
11681;SDS011;5897;42.640;23.310;2023-11-19T12:07:17;2.20;;;1.98;;
11681;SDS011;5897;42.640;23.310;2023-11-19T12:09:51;1.83;;;1.67;;
11681;SDS011;5897;42.640;23.310;2023-11-19T12:12:25;1.98;;;1.70;;
11681;SDS011;5897;42.640;23.310;2023-11-19T12:14:59;1.90;;;1.80;;
11681;SDS011;5897;42.640;23.310;2023-11-19T12:20:18;1.75;;;1.60;;
11681;SDS011;5897;42.640;23.310;2023-11-19T12:22:47;2.08;;;1.75;;
11681;SDS011;5897;42.640;23.310;2023-11-19T12:25:16;2.10;;;1.77;;
11681;SDS011;5897;42.640;23.310;2023-11-19T12:27:50;2.22;;;1.77;;
11681;SDS011;5897;42.640;23.310;2023-11-19T12:30:18;1.88;;;1.60;;
11681;SDS011;5897;42.640;23.310;2023-11-19T12:32:48;2.25;;;1.40;;
11681;SDS011;5897;42.640;23.310;2023-11-19T12:35:14;1.60;;;1.50;;
11681;SDS011;5897;42.640;23.310;2023-11-19T12:37:41;1.63;;;1.52;;
11681;SDS011;5897;42.640;23.310;2023-11-19T12:40:14;1.98;;;1.70;;
11681;SDS011;5897;42.640;23.310;2023-11-19T12:42:45;1.88;;;1.50;;
11681;SDS011;5897;42.640;23.310;2023-11-19T12:45:13;1.73;;;1.30;;
11681;SDS011;5897;42.640;23.310;2023-11-19T12:47:41;1.92;;;1.83;;
11681;SDS011;5897;42.640;23.310;2023-11-19T12:50:09;1.80;;;1.70;;
11681;SDS011;5897;42.640;23.310;2023-11-19T12:52:36;2.42;;;1.92;;
11681;SDS011;5897;42.640;23.310;2023-11-19T12:55:04;2.10;;;1.45;;
11681;SDS011;5897;42.640;23.310;2023-11-19T12:57:37;1.40;;;1.30;;
11681;SDS011;5897;42.640;23.310;2023-11-19T13:00:05;3.65;;;1.40;;
11681;SDS011;5897;42.640;23.310;2023-11-19T13:02:45;1.38;;;1.27;;
11681;SDS011;5897;42.640;23.310;2023-11-19T13:05:22;2.42;;;2.00;;
11681;SDS011;5897;42.640;23.310;2023-11-19T13:07:51;2.08;;;1.52;;
11681;SDS011;5897;42.640;23.310;2023-11-19T13:10:24;1.42;;;1.33;;
11681;SDS011;5897;42.640;23.310;2023-11-19T13:13:02;3.97;;;1.80;;
11681;SDS011;5897;42.640;23.310;2023-11-19T13:15:35;1.48;;;1.38;;
11681;SDS011;5897;42.640;23.310;2023-11-19T13:18:02;1.75;;;1.50;;
11681;SDS011;5897;42.640;23.310;2023-11-19T13:20:29;1.80;;;1.70;;
11681;SDS011;5897;42.640;23.310;2023-11-19T13:23:01;1.60;;;1.50;;
11681;SDS011;5897;42.640;23.310;2023-11-19T13:25:29;1.77;;;1.67;;
11681;SDS011;5897;42.640;23.310;2023-11-19T13:27:57;1.98;;;1.80;;
11681;SDS011;5897;42.640;23.310;2023-11-19T13:30:26;1.95;;;1.85;;
11681;SDS011;5897;42.640;23.310;2023-11-19T13:32:54;1.88;;;1.77;;
11681;SDS011;5897;42.640;23.310;2023-11-19T13:35:21;1.65;;;1.55;;
11681;SDS011;5897;42.640;23.310;2023-11-19T13:37:50;2.10;;;1.90;;
11681;SDS011;5897;42.640;23.310;2023-11-19T13:40:17;2.20;;;2.00;;
11681;SDS011;5897;42.640;23.310;2023-11-19T13:42:44;1.83;;;1.73;;
11681;SDS011;5897;42.640;23.310;2023-11-19T13:45:11;2.22;;;1.67;;
11681;SDS011;5897;42.640;23.310;2023-11-19T13:47:44;1.80;;;1.70;;
11681;SDS011;5897;42.640;23.310;2023-11-19T13:50:12;2.05;;;1.90;;
11681;SDS011;5897;42.640;23.310;2023-11-19T13:52:40;2.10;;;1.90;;
11681;SDS011;5897;42.640;23.310;2023-11-19T13:55:11;2.78;;;2.38;;
11681;SDS011;5897;42.640;23.310;2023-11-19T13:57:39;4.15;;;2.22;;
11681;SDS011;5897;42.640;23.310;2023-11-19T14:00:12;2.28;;;2.08;;
11681;SDS011;5897;42.640;23.310;2023-11-19T14:02:41;2.75;;;2.45;;
11681;SDS011;5897;42.640;23.310;2023-11-19T14:05:13;3.75;;;2.20;;
11681;SDS011;5897;42.640;23.310;2023-11-19T14:07:43;2.85;;;2.40;;
11681;SDS011;5897;42.640;23.310;2023-11-19T14:10:12;3.67;;;2.78;;
11681;SDS011;5897;42.640;23.310;2023-11-19T14:12:40;2.92;;;2.53;;
11681;SDS011;5897;42.640;23.310;2023-11-19T14:15:28;3.40;;;2.45;;
11681;SDS011;5897;42.640;23.310;2023-11-19T14:17:58;3.80;;;2.78;;
11681;SDS011;5897;42.640;23.310;2023-11-19T14:20:26;3.35;;;2.83;;
11681;SDS011;5897;42.640;23.310;2023-11-19T14:22:53;2.55;;;1.95;;
11681;SDS011;5897;42.640;23.310;2023-11-19T14:25:25;2.15;;;1.92;;
11681;SDS011;5897;42.640;23.310;2023-11-19T14:27:52;3.20;;;2.35;;
11681;SDS011;5897;42.640;23.310;2023-11-19T14:30:19;2.20;;;2.00;;
11681;SDS011;5897;42.640;23.310;2023-11-19T14:32:49;1.85;;;1.65;;
11681;SDS011;5897;42.640;23.310;2023-11-19T14:35:21;2.38;;;2.17;;
11681;SDS011;5897;42.640;23.310;2023-11-19T14:37:51;2.70;;;2.20;;
11681;SDS011;5897;42.640;23.310;2023-11-19T14:40:18;2.33;;;2.13;;
11681;SDS011;5897;42.640;23.310;2023-11-19T14:42:50;2.03;;;1.92;;
11681;SDS011;5897;42.640;23.310;2023-11-19T14:45:20;3.33;;;2.78;;
11681;SDS011;5897;42.640;23.310;2023-11-19T14:47:47;4.93;;;2.80;;
11681;SDS011;5897;42.640;23.310;2023-11-19T14:50:14;4.97;;;2.33;;
11681;SDS011;5897;42.640;23.310;2023-11-19T14:52:41;3.53;;;3.22;;
11681;SDS011;5897;42.640;23.310;2023-11-19T14:55:09;2.85;;;2.28;;
11681;SDS011;5897;42.640;23.310;2023-11-19T14:57:39;2.55;;;2.35;;
11681;SDS011;5897;42.640;23.310;2023-11-19T15:00:07;4.05;;;2.97;;
11681;SDS011;5897;42.640;23.310;2023-11-19T15:02:38;5.07;;;3.75;;
11681;SDS011;5897;42.640;23.310;2023-11-19T15:05:06;5.47;;;3.80;;
11681;SDS011;5897;42.640;23.310;2023-11-19T15:07:34;5.13;;;4.63;;
11681;SDS011;5897;42.640;23.310;2023-11-19T15:10:01;7.75;;;5.72;;